sensor_id;sensor_type;location;lat;lon;timestamp;P1;durP1;ratioP1;P2;durP2;ratioP2
51304;SDS011;37392;50.964;6.952;2022-12-18T00:02:18;30.08;;;12.73;;
51304;SDS011;37392;50.964;6.952;2022-12-18T00:04:49;26.88;;;13.43;;
51304;SDS011;37392;50.964;6.952;2022-12-18T00:09:45;27.30;;;12.77;;
51304;SDS011;37392;50.964;6.952;2022-12-18T00:12:56;34.28;;;15.63;;
51304;SDS011;37392;50.964;6.952;2022-12-18T00:15:23;30.48;;;13.32;;
51304;SDS011;37392;50.964;6.952;2022-12-18T00:17:56;33.85;;;13.95;;
51304;SDS011;37392;50.964;6.952;2022-12-18T00:20:30;40.67;;;13.43;;
51304;SDS011;37392;50.964;6.952;2022-12-18T00:23:06;38.13;;;16.17;;
51304;SDS011;37392;50.964;6.952;2022-12-18T00:25:42;29.45;;;13.20;;
51304;SDS011;37392;50.964;6.952;2022-12-18T00:28:11;28.90;;;14.18;;
51304;SDS011;37392;50.964;6.952;2022-12-18T00:30:40;28.77;;;13.10;;
51304;SDS011;37392;50.964;6.952;2022-12-18T00:33:10;26.50;;;13.73;;
51304;SDS011;37392;50.964;6.952;2022-12-18T00:35:36;37.55;;;15.00;;
51304;SDS011;37392;50.964;6.952;2022-12-18T00:38:01;33.30;;;15.30;;
51304;SDS011;37392;50.964;6.952;2022-12-18T00:40:27;39.65;;;15.25;;
51304;SDS011;37392;50.964;6.952;2022-12-18T00:43:12;32.88;;;14.85;;
51304;SDS011;37392;50.964;6.952;2022-12-18T00:45:37;34.55;;;15.77;;
51304;SDS011;37392;50.964;6.952;2022-12-18T00:48:03;46.80;;;15.68;;
51304;SDS011;37392;50.964;6.952;2022-12-18T00:50:29;34.17;;;14.70;;
51304;SDS011;37392;50.964;6.952;2022-12-18T00:52:55;25.35;;;12.98;;
51304;SDS011;37392;50.964;6.952;2022-12-18T00:55:20;27.17;;;13.52;;
51304;SDS011;37392;50.964;6.952;2022-12-18T00:57:46;35.83;;;14.45;;
51304;SDS011;37392;50.964;6.952;2022-12-18T01:00:13;32.78;;;14.35;;
51304;SDS011;37392;50.964;6.952;2022-12-18T01:02:40;38.33;;;14.88;;
51304;SDS011;37392;50.964;6.952;2022-12-18T01:05:06;40.40;;;14.65;;
51304;SDS011;37392;50.964;6.952;2022-12-18T01:07:34;39.17;;;14.52;;
51304;SDS011;37392;50.964;6.952;2022-12-18T01:09:59;30.65;;;15.52;;
51304;SDS011;37392;50.964;6.952;2022-12-18T01:12:25;31.90;;;13.98;;
51304;SDS011;37392;50.964;6.952;2022-12-18T01:14:52;32.05;;;15.25;;
51304;SDS011;37392;50.964;6.952;2022-12-18T01:17:18;34.67;;;14.77;;
51304;SDS011;37392;50.964;6.952;2022-12-18T01:19:43;36.88;;;15.98;;
51304;SDS011;37392;50.964;6.952;2022-12-18T01:22:09;27.52;;;13.27;;
51304;SDS011;37392;50.964;6.952;2022-12-18T01:24:34;30.40;;;14.70;;
51304;SDS011;37392;50.964;6.952;2022-12-18T01:27:00;33.35;;;15.32;;
51304;SDS011;37392;50.964;6.952;2022-12-18T01:29:26;32.95;;;14.40;;
51304;SDS011;37392;50.964;6.952;2022-12-18T01:31:54;36.05;;;12.93;;
51304;SDS011;37392;50.964;6.952;2022-12-18T01:34:20;41.03;;;14.77;;
51304;SDS011;37392;50.964;6.952;2022-12-18T01:36:47;35.88;;;13.43;;
51304;SDS011;37392;50.964;6.952;2022-12-18T01:39:13;34.78;;;16.50;;
51304;SDS011;37392;50.964;6.952;2022-12-18T01:41:40;41.85;;;14.82;;
51304;SDS011;37392;50.964;6.952;2022-12-18T01:50:13;28.40;;;13.82;;
51304;SDS011;37392;50.964;6.952;2022-12-18T01:52:42;27.25;;;12.75;;
51304;SDS011;37392;50.964;6.952;2022-12-18T01:57:40;40.65;;;15.52;;
51304;SDS011;37392;50.964;6.952;2022-12-18T02:00:11;31.33;;;14.57;;
51304;SDS011;37392;50.964;6.952;2022-12-18T02:02:44;32.53;;;14.75;;
51304;SDS011;37392;50.964;6.952;2022-12-18T02:05:11;41.28;;;14.57;;
51304;SDS011;37392;50.964;6.952;2022-12-18T02:15:46;35.90;;;14.55;;
51304;SDS011;37392;50.964;6.952;2022-12-18T02:18:34;34.75;;;13.13;;
51304;SDS011;37392;50.964;6.952;2022-12-18T02:26:48;35.65;;;14.48;;
51304;SDS011;37392;50.964;6.952;2022-12-18T02:29:16;38.92;;;14.82;;
51304;SDS011;37392;50.964;6.952;2022-12-18T02:31:54;26.25;;;12.68;;
51304;SDS011;37392;50.964;6.952;2022-12-18T02:34:26;27.88;;;13.00;;
51304;SDS011;37392;50.964;6.952;2022-12-18T02:36:55;32.90;;;14.48;;
51304;SDS011;37392;50.964;6.952;2022-12-18T02:39:23;26.23;;;12.93;;
51304;SDS011;37392;50.964;6.952;2022-12-18T02:41:50;29.67;;;12.80;;
51304;SDS011;37392;50.964;6.952;2022-12-18T02:44:16;35.38;;;14.25;;
51304;SDS011;37392;50.964;6.952;2022-12-18T02:46:43;32.17;;;15.60;;
51304;SDS011;37392;50.964;6.952;2022-12-18T02:51:56;29.92;;;13.45;;
51304;SDS011;37392;50.964;6.952;2022-12-18T02:54:37;31.98;;;13.40;;
51304;SDS011;37392;50.964;6.952;2022-12-18T02:57:33;27.90;;;13.35;;
51304;SDS011;37392;50.964;6.952;2022-12-18T03:00:21;33.17;;;11.93;;
51304;SDS011;37392;50.964;6.952;2022-12-18T03:03:14;27.95;;;12.48;;
51304;SDS011;37392;50.964;6.952;2022-12-18T03:05:53;37.97;;;13.30;;
51304;SDS011;37392;50.964;6.952;2022-12-18T03:08:29;32.65;;;13.40;;
51304;SDS011;37392;50.964;6.952;2022-12-18T03:11:04;35.97;;;12.85;;
51304;SDS011;37392;50.964;6.952;2022-12-18T03:13:45;41.05;;;14.05;;
51304;SDS011;37392;50.964;6.952;2022-12-18T03:16:25;30.50;;;11.68;;
51304;SDS011;37392;50.964;6.952;2022-12-18T03:18:55;26.48;;;12.48;;
51304;SDS011;37392;50.964;6.952;2022-12-18T03:21:28;32.45;;;14.18;;
51304;SDS011;37392;50.964;6.952;2022-12-18T03:24:03;27.45;;;12.25;;
51304;SDS011;37392;50.964;6.952;2022-12-18T03:28:59;31.60;;;13.27;;
51304;SDS011;37392;50.964;6.952;2022-12-18T03:31:30;29.20;;;14.18;;
51304;SDS011;37392;50.964;6.952;2022-12-18T03:34:01;24.58;;;11.18;;
51304;SDS011;37392;50.964;6.952;2022-12-18T03:36:34;23.58;;;12.65;;
51304;SDS011;37392;50.964;6.952;2022-12-18T03:39:00;31.77;;;14.52;;
51304;SDS011;37392;50.964;6.952;2022-12-18T03:41:38;30.90;;;13.55;;
51304;SDS011;37392;50.964;6.952;2022-12-18T03:55:26;28.00;;;13.00;;
51304;SDS011;37392;50.964;6.952;2022-12-18T03:57:55;30.20;;;12.55;;
51304;SDS011;37392;50.964;6.952;2022-12-18T04:00:22;23.88;;;11.65;;
51304;SDS011;37392;50.964;6.952;2022-12-18T04:02:49;29.23;;;13.18;;
51304;SDS011;37392;50.964;6.952;2022-12-18T04:05:18;25.58;;;11.55;;
51304;SDS011;37392;50.964;6.952;2022-12-18T04:07:47;24.05;;;12.43;;
51304;SDS011;37392;50.964;6.952;2022-12-18T04:10:14;35.50;;;15.23;;
51304;SDS011;37392;50.964;6.952;2022-12-18T04:12:41;35.80;;;14.27;;
51304;SDS011;37392;50.964;6.952;2022-12-18T04:15:08;28.20;;;11.82;;
51304;SDS011;37392;50.964;6.952;2022-12-18T04:17:35;28.58;;;12.95;;
51304;SDS011;37392;50.964;6.952;2022-12-18T04:20:01;36.50;;;14.60;;
51304;SDS011;37392;50.964;6.952;2022-12-18T04:22:27;36.65;;;13.65;;
51304;SDS011;37392;50.964;6.952;2022-12-18T04:24:53;36.83;;;14.63;;
51304;SDS011;37392;50.964;6.952;2022-12-18T04:27:18;28.50;;;12.43;;
51304;SDS011;37392;50.964;6.952;2022-12-18T04:29:44;36.00;;;15.20;;
51304;SDS011;37392;50.964;6.952;2022-12-18T04:32:09;30.08;;;14.40;;
51304;SDS011;37392;50.964;6.952;2022-12-18T04:34:35;40.55;;;15.85;;
51304;SDS011;37392;50.964;6.952;2022-12-18T04:37:01;36.10;;;14.50;;
51304;SDS011;37392;50.964;6.952;2022-12-18T04:39:26;34.58;;;14.88;;
51304;SDS011;37392;50.964;6.952;2022-12-18T04:41:52;37.67;;;14.88;;
51304;SDS011;37392;50.964;6.952;2022-12-18T04:44:17;37.40;;;15.30;;
51304;SDS011;37392;50.964;6.952;2022-12-18T04:46:43;34.38;;;14.88;;
51304;SDS011;37392;50.964;6.952;2022-12-18T04:49:09;33.00;;;15.40;;
51304;SDS011;37392;50.964;6.952;2022-12-18T04:51:35;30.60;;;15.10;;
51304;SDS011;37392;50.964;6.952;2022-12-18T04:54:02;37.30;;;16.35;;
51304;SDS011;37392;50.964;6.952;2022-12-18T04:56:28;32.50;;;14.90;;
51304;SDS011;37392;50.964;6.952;2022-12-18T04:58:55;33.08;;;14.25;;
51304;SDS011;37392;50.964;6.952;2022-12-18T05:01:21;27.67;;;13.93;;
51304;SDS011;37392;50.964;6.952;2022-12-18T05:03:47;32.33;;;14.13;;
51304;SDS011;37392;50.964;6.952;2022-12-18T05:06:12;33.50;;;14.55;;
51304;SDS011;37392;50.964;6.952;2022-12-18T05:08:38;30.73;;;14.27;;
51304;SDS011;37392;50.964;6.952;2022-12-18T05:11:06;39.88;;;14.95;;
51304;SDS011;37392;50.964;6.952;2022-12-18T05:13:34;31.35;;;14.50;;
51304;SDS011;37392;50.964;6.952;2022-12-18T05:16:01;34.55;;;15.57;;
51304;SDS011;37392;50.964;6.952;2022-12-18T05:18:27;30.73;;;15.00;;
51304;SDS011;37392;50.964;6.952;2022-12-18T05:20:53;29.65;;;13.70;;
51304;SDS011;37392;50.964;6.952;2022-12-18T05:23:20;31.25;;;14.30;;
51304;SDS011;37392;50.964;6.952;2022-12-18T05:25:50;30.85;;;13.32;;
51304;SDS011;37392;50.964;6.952;2022-12-18T05:28:21;25.58;;;12.40;;
51304;SDS011;37392;50.964;6.952;2022-12-18T05:30:52;30.90;;;13.95;;
51304;SDS011;37392;50.964;6.952;2022-12-18T05:33:22;38.50;;;13.82;;
51304;SDS011;37392;50.964;6.952;2022-12-18T05:35:50;28.70;;;11.30;;
51304;SDS011;37392;50.964;6.952;2022-12-18T05:38:21;29.65;;;11.93;;
51304;SDS011;37392;50.964;6.952;2022-12-18T05:40:56;26.92;;;13.00;;
51304;SDS011;37392;50.964;6.952;2022-12-18T05:43:22;22.98;;;12.50;;
51304;SDS011;37392;50.964;6.952;2022-12-18T05:45:49;30.48;;;13.52;;
51304;SDS011;37392;50.964;6.952;2022-12-18T05:48:15;34.17;;;13.10;;
51304;SDS011;37392;50.964;6.952;2022-12-18T05:50:42;27.50;;;11.75;;
51304;SDS011;37392;50.964;6.952;2022-12-18T05:53:13;28.17;;;11.57;;
51304;SDS011;37392;50.964;6.952;2022-12-18T05:55:41;27.83;;;11.82;;
51304;SDS011;37392;50.964;6.952;2022-12-18T05:58:08;32.25;;;13.88;;
51304;SDS011;37392;50.964;6.952;2022-12-18T06:00:36;33.03;;;11.95;;
51304;SDS011;37392;50.964;6.952;2022-12-18T06:03:05;25.25;;;12.07;;
51304;SDS011;37392;50.964;6.952;2022-12-18T06:05:35;28.77;;;12.23;;
51304;SDS011;37392;50.964;6.952;2022-12-18T06:08:07;27.17;;;13.13;;
51304;SDS011;37392;50.964;6.952;2022-12-18T06:10:33;26.52;;;12.77;;
51304;SDS011;37392;50.964;6.952;2022-12-18T06:13:00;29.63;;;13.05;;
51304;SDS011;37392;50.964;6.952;2022-12-18T06:15:26;35.25;;;13.65;;
51304;SDS011;37392;50.964;6.952;2022-12-18T06:17:52;30.08;;;13.02;;
51304;SDS011;37392;50.964;6.952;2022-12-18T06:20:17;28.67;;;13.18;;
51304;SDS011;37392;50.964;6.952;2022-12-18T06:22:43;35.38;;;16.95;;
51304;SDS011;37392;50.964;6.952;2022-12-18T06:25:09;31.65;;;14.40;;
51304;SDS011;37392;50.964;6.952;2022-12-18T06:27:35;43.70;;;14.32;;
51304;SDS011;37392;50.964;6.952;2022-12-18T06:30:01;39.88;;;15.15;;
51304;SDS011;37392;50.964;6.952;2022-12-18T06:32:28;42.72;;;16.02;;
51304;SDS011;37392;50.964;6.952;2022-12-18T06:34:53;38.17;;;16.08;;
51304;SDS011;37392;50.964;6.952;2022-12-18T06:37:20;37.58;;;16.13;;
51304;SDS011;37392;50.964;6.952;2022-12-18T06:39:47;33.55;;;14.93;;
51304;SDS011;37392;50.964;6.952;2022-12-18T06:42:12;30.50;;;15.07;;
51304;SDS011;37392;50.964;6.952;2022-12-18T06:44:38;39.17;;;16.45;;
51304;SDS011;37392;50.964;6.952;2022-12-18T06:47:03;29.83;;;14.68;;
51304;SDS011;37392;50.964;6.952;2022-12-18T06:49:29;40.78;;;16.38;;
51304;SDS011;37392;50.964;6.952;2022-12-18T06:51:54;44.10;;;14.32;;
51304;SDS011;37392;50.964;6.952;2022-12-18T06:54:20;32.63;;;14.02;;
51304;SDS011;37392;50.964;6.952;2022-12-18T06:56:45;35.15;;;15.65;;
51304;SDS011;37392;50.964;6.952;2022-12-18T06:59:12;33.33;;;16.25;;
51304;SDS011;37392;50.964;6.952;2022-12-18T07:01:38;37.88;;;14.88;;
51304;SDS011;37392;50.964;6.952;2022-12-18T07:04:04;40.47;;;15.77;;
51304;SDS011;37392;50.964;6.952;2022-12-18T07:06:29;35.08;;;16.27;;
51304;SDS011;37392;50.964;6.952;2022-12-18T07:08:55;37.55;;;15.45;;
51304;SDS011;37392;50.964;6.952;2022-12-18T07:11:21;36.33;;;15.13;;
51304;SDS011;37392;50.964;6.952;2022-12-18T07:13:47;34.58;;;17.08;;
51304;SDS011;37392;50.964;6.952;2022-12-18T07:16:14;31.88;;;16.30;;
51304;SDS011;37392;50.964;6.952;2022-12-18T07:18:44;37.63;;;16.02;;
51304;SDS011;37392;50.964;6.952;2022-12-18T07:21:12;41.40;;;18.50;;
51304;SDS011;37392;50.964;6.952;2022-12-18T07:23:42;36.72;;;14.77;;
51304;SDS011;37392;50.964;6.952;2022-12-18T07:26:10;41.10;;;17.35;;
51304;SDS011;37392;50.964;6.952;2022-12-18T07:28:38;39.90;;;16.88;;
51304;SDS011;37392;50.964;6.952;2022-12-18T07:31:06;29.45;;;15.02;;
51304;SDS011;37392;50.964;6.952;2022-12-18T07:33:37;40.70;;;17.27;;
51304;SDS011;37392;50.964;6.952;2022-12-18T07:36:04;39.75;;;17.92;;
51304;SDS011;37392;50.964;6.952;2022-12-18T07:38:32;44.58;;;18.15;;
51304;SDS011;37392;50.964;6.952;2022-12-18T07:41:06;48.00;;;18.83;;
51304;SDS011;37392;50.964;6.952;2022-12-18T07:43:36;36.03;;;15.35;;
51304;SDS011;37392;50.964;6.952;2022-12-18T07:46:03;39.65;;;18.25;;
51304;SDS011;37392;50.964;6.952;2022-12-18T07:48:30;46.40;;;17.05;;
51304;SDS011;37392;50.964;6.952;2022-12-18T07:51:03;48.20;;;19.67;;
51304;SDS011;37392;50.964;6.952;2022-12-18T07:53:30;46.42;;;17.67;;
51304;SDS011;37392;50.964;6.952;2022-12-18T07:55:58;44.50;;;18.13;;
51304;SDS011;37392;50.964;6.952;2022-12-18T07:58:26;44.15;;;16.75;;
51304;SDS011;37392;50.964;6.952;2022-12-18T08:00:52;34.10;;;17.13;;
51304;SDS011;37392;50.964;6.952;2022-12-18T08:03:18;36.03;;;17.40;;
51304;SDS011;37392;50.964;6.952;2022-12-18T08:05:44;50.75;;;18.67;;
51304;SDS011;37392;50.964;6.952;2022-12-18T08:08:09;40.47;;;18.60;;
51304;SDS011;37392;50.964;6.952;2022-12-18T08:10:35;39.60;;;17.35;;
51304;SDS011;37392;50.964;6.952;2022-12-18T08:13:02;34.38;;;16.38;;
51304;SDS011;37392;50.964;6.952;2022-12-18T08:15:28;26.75;;;15.10;;
51304;SDS011;37392;50.964;6.952;2022-12-18T08:17:57;34.72;;;17.83;;
51304;SDS011;37392;50.964;6.952;2022-12-18T08:20:25;35.38;;;15.20;;
51304;SDS011;37392;50.964;6.952;2022-12-18T08:22:51;35.22;;;15.98;;
51304;SDS011;37392;50.964;6.952;2022-12-18T08:25:16;36.00;;;15.10;;
51304;SDS011;37392;50.964;6.952;2022-12-18T08:27:42;38.42;;;15.30;;
51304;SDS011;37392;50.964;6.952;2022-12-18T08:30:08;36.63;;;15.80;;
51304;SDS011;37392;50.964;6.952;2022-12-18T08:32:34;33.88;;;14.82;;
51304;SDS011;37392;50.964;6.952;2022-12-18T08:35:00;34.70;;;16.13;;
51304;SDS011;37392;50.964;6.952;2022-12-18T08:37:25;34.63;;;15.20;;
51304;SDS011;37392;50.964;6.952;2022-12-18T08:39:51;28.65;;;13.73;;
51304;SDS011;37392;50.964;6.952;2022-12-18T08:42:16;33.97;;;13.93;;
51304;SDS011;37392;50.964;6.952;2022-12-18T08:45:01;31.80;;;13.43;;
51304;SDS011;37392;50.964;6.952;2022-12-18T08:47:27;33.20;;;16.10;;
51304;SDS011;37392;50.964;6.952;2022-12-18T08:49:52;33.70;;;15.40;;
51304;SDS011;37392;50.964;6.952;2022-12-18T08:52:18;32.22;;;14.30;;
51304;SDS011;37392;50.964;6.952;2022-12-18T08:54:44;31.08;;;13.98;;
51304;SDS011;37392;50.964;6.952;2022-12-18T08:57:10;32.22;;;13.80;;
51304;SDS011;37392;50.964;6.952;2022-12-18T08:59:36;36.67;;;14.98;;
51304;SDS011;37392;50.964;6.952;2022-12-18T09:02:05;38.60;;;15.02;;
51304;SDS011;37392;50.964;6.952;2022-12-18T09:04:31;29.10;;;14.15;;
51304;SDS011;37392;50.964;6.952;2022-12-18T09:06:56;30.65;;;13.80;;
51304;SDS011;37392;50.964;6.952;2022-12-18T09:09:22;39.08;;;15.93;;
51304;SDS011;37392;50.964;6.952;2022-12-18T09:11:47;29.08;;;14.07;;
51304;SDS011;37392;50.964;6.952;2022-12-18T09:14:13;35.33;;;15.32;;
51304;SDS011;37392;50.964;6.952;2022-12-18T09:16:38;34.22;;;14.43;;
51304;SDS011;37392;50.964;6.952;2022-12-18T09:19:04;29.77;;;14.32;;
51304;SDS011;37392;50.964;6.952;2022-12-18T09:21:32;28.75;;;13.82;;
51304;SDS011;37392;50.964;6.952;2022-12-18T09:24:03;31.70;;;13.95;;
51304;SDS011;37392;50.964;6.952;2022-12-18T09:26:30;29.30;;;14.90;;
51304;SDS011;37392;50.964;6.952;2022-12-18T09:28:56;27.00;;;13.88;;
51304;SDS011;37392;50.964;6.952;2022-12-18T09:31:22;29.25;;;13.60;;
51304;SDS011;37392;50.964;6.952;2022-12-18T09:33:49;38.63;;;15.07;;
51304;SDS011;37392;50.964;6.952;2022-12-18T09:36:16;29.65;;;13.77;;
51304;SDS011;37392;50.964;6.952;2022-12-18T09:38:43;33.17;;;15.20;;
51304;SDS011;37392;50.964;6.952;2022-12-18T09:47:11;28.33;;;13.68;;
51304;SDS011;37392;50.964;6.952;2022-12-18T09:49:46;33.60;;;15.23;;
51304;SDS011;37392;50.964;6.952;2022-12-18T09:55:02;29.30;;;14.48;;
51304;SDS011;37392;50.964;6.952;2022-12-18T09:57:47;29.23;;;14.48;;
51304;SDS011;37392;50.964;6.952;2022-12-18T10:00:19;32.33;;;15.13;;
51304;SDS011;37392;50.964;6.952;2022-12-18T10:02:47;30.10;;;13.82;;
51304;SDS011;37392;50.964;6.952;2022-12-18T10:05:29;31.30;;;14.48;;
51304;SDS011;37392;50.964;6.952;2022-12-18T10:08:27;31.55;;;15.20;;
51304;SDS011;37392;50.964;6.952;2022-12-18T10:20:14;35.03;;;15.52;;
51304;SDS011;37392;50.964;6.952;2022-12-18T10:22:57;33.90;;;16.35;;
51304;SDS011;37392;50.964;6.952;2022-12-18T10:25:52;43.00;;;15.48;;
51304;SDS011;37392;50.964;6.952;2022-12-18T10:28:32;28.35;;;13.60;;
51304;SDS011;37392;50.964;6.952;2022-12-18T10:31:01;31.77;;;14.05;;
51304;SDS011;37392;50.964;6.952;2022-12-18T10:33:28;38.33;;;13.82;;
51304;SDS011;37392;50.964;6.952;2022-12-18T10:35:57;33.17;;;15.32;;
51304;SDS011;37392;50.964;6.952;2022-12-18T10:38:26;27.30;;;14.18;;
51304;SDS011;37392;50.964;6.952;2022-12-18T10:41:22;32.50;;;13.23;;
51304;SDS011;37392;50.964;6.952;2022-12-18T10:46:45;28.70;;;14.90;;
51304;SDS011;37392;50.964;6.952;2022-12-18T10:49:23;40.28;;;15.10;;
51304;SDS011;37392;50.964;6.952;2022-12-18T10:54:47;30.10;;;14.73;;
51304;SDS011;37392;50.964;6.952;2022-12-18T11:02:54;30.83;;;15.02;;
51304;SDS011;37392;50.964;6.952;2022-12-18T11:07:53;31.50;;;14.63;;
51304;SDS011;37392;50.964;6.952;2022-12-18T11:10:20;31.23;;;13.77;;
51304;SDS011;37392;50.964;6.952;2022-12-18T11:12:50;37.75;;;13.00;;
51304;SDS011;37392;50.964;6.952;2022-12-18T11:15:21;30.42;;;13.82;;
51304;SDS011;37392;50.964;6.952;2022-12-18T11:17:53;35.45;;;15.57;;
51304;SDS011;37392;50.964;6.952;2022-12-18T11:27:58;35.00;;;15.20;;
51304;SDS011;37392;50.964;6.952;2022-12-18T11:30:47;32.47;;;13.75;;
51304;SDS011;37392;50.964;6.952;2022-12-18T11:33:14;40.33;;;14.98;;
51304;SDS011;37392;50.964;6.952;2022-12-18T11:35:53;30.90;;;14.07;;
51304;SDS011;37392;50.964;6.952;2022-12-18T11:38:24;33.20;;;14.23;;
51304;SDS011;37392;50.964;6.952;2022-12-18T11:40:55;34.13;;;15.05;;
51304;SDS011;37392;50.964;6.952;2022-12-18T11:43:52;36.47;;;16.55;;
51304;SDS011;37392;50.964;6.952;2022-12-18T11:46:37;36.97;;;16.55;;
51304;SDS011;37392;50.964;6.952;2022-12-18T11:49:13;33.92;;;14.75;;
51304;SDS011;37392;50.964;6.952;2022-12-18T11:54:23;37.97;;;16.17;;
51304;SDS011;37392;50.964;6.952;2022-12-18T12:10:37;41.85;;;16.27;;
51304;SDS011;37392;50.964;6.952;2022-12-18T12:16:17;39.53;;;18.23;;
51304;SDS011;37392;50.964;6.952;2022-12-18T12:21:39;46.60;;;20.42;;
51304;SDS011;37392;50.964;6.952;2022-12-18T12:27:07;45.40;;;17.70;;
51304;SDS011;37392;50.964;6.952;2022-12-18T12:32:34;56.97;;;20.65;;
51304;SDS011;37392;50.964;6.952;2022-12-18T12:35:16;43.13;;;19.65;;
51304;SDS011;37392;50.964;6.952;2022-12-18T12:40:36;39.28;;;16.98;;
51304;SDS011;37392;50.964;6.952;2022-12-18T12:43:28;43.30;;;18.45;;
51304;SDS011;37392;50.964;6.952;2022-12-18T12:46:11;41.53;;;17.92;;
51304;SDS011;37392;50.964;6.952;2022-12-18T12:48:46;40.13;;;18.48;;
51304;SDS011;37392;50.964;6.952;2022-12-18T12:51:26;41.17;;;17.45;;
51304;SDS011;37392;50.964;6.952;2022-12-18T12:54:05;45.35;;;18.92;;
51304;SDS011;37392;50.964;6.952;2022-12-18T12:59:28;52.28;;;18.27;;
51304;SDS011;37392;50.964;6.952;2022-12-18T13:02:08;41.35;;;17.98;;
51304;SDS011;37392;50.964;6.952;2022-12-18T13:08:08;47.08;;;19.30;;
51304;SDS011;37392;50.964;6.952;2022-12-18T13:10:39;47.72;;;20.55;;
51304;SDS011;37392;50.964;6.952;2022-12-18T13:15:44;42.78;;;18.38;;
51304;SDS011;37392;50.964;6.952;2022-12-18T13:20:47;39.85;;;17.27;;
51304;SDS011;37392;50.964;6.952;2022-12-18T13:34:18;48.35;;;20.52;;
51304;SDS011;37392;50.964;6.952;2022-12-18T13:36:49;39.80;;;17.63;;
51304;SDS011;37392;50.964;6.952;2022-12-18T13:41:48;51.13;;;20.65;;
51304;SDS011;37392;50.964;6.952;2022-12-18T13:47:33;43.15;;;19.77;;
51304;SDS011;37392;50.964;6.952;2022-12-18T13:50:20;46.03;;;20.77;;
51304;SDS011;37392;50.964;6.952;2022-12-18T13:52:50;41.70;;;19.35;;
51304;SDS011;37392;50.964;6.952;2022-12-18T13:55:17;48.97;;;20.80;;
51304;SDS011;37392;50.964;6.952;2022-12-18T13:57:47;41.20;;;20.45;;
51304;SDS011;37392;50.964;6.952;2022-12-18T14:00:28;48.33;;;19.70;;
51304;SDS011;37392;50.964;6.952;2022-12-18T14:02:55;50.65;;;21.05;;
51304;SDS011;37392;50.964;6.952;2022-12-18T14:08:06;47.20;;;21.88;;
51304;SDS011;37392;50.964;6.952;2022-12-18T14:10:35;46.75;;;20.98;;
51304;SDS011;37392;50.964;6.952;2022-12-18T14:13:08;49.65;;;19.98;;
51304;SDS011;37392;50.964;6.952;2022-12-18T14:15:40;60.47;;;24.10;;
51304;SDS011;37392;50.964;6.952;2022-12-18T14:20:59;46.90;;;22.27;;
51304;SDS011;37392;50.964;6.952;2022-12-18T14:23:37;49.22;;;23.00;;
51304;SDS011;37392;50.964;6.952;2022-12-18T14:28:57;45.17;;;21.10;;
51304;SDS011;37392;50.964;6.952;2022-12-18T14:31:27;48.47;;;23.23;;
51304;SDS011;37392;50.964;6.952;2022-12-18T14:33:55;57.65;;;21.02;;
51304;SDS011;37392;50.964;6.952;2022-12-18T14:36:22;51.03;;;23.55;;
51304;SDS011;37392;50.964;6.952;2022-12-18T14:38:54;52.95;;;23.40;;
51304;SDS011;37392;50.964;6.952;2022-12-18T14:41:22;50.78;;;22.70;;
51304;SDS011;37392;50.964;6.952;2022-12-18T14:43:52;50.78;;;21.23;;
51304;SDS011;37392;50.964;6.952;2022-12-18T14:51:59;45.88;;;21.00;;
51304;SDS011;37392;50.964;6.952;2022-12-18T14:54:27;52.45;;;21.63;;
51304;SDS011;37392;50.964;6.952;2022-12-18T14:59:27;50.20;;;22.25;;
51304;SDS011;37392;50.964;6.952;2022-12-18T15:05:05;49.63;;;23.42;;
51304;SDS011;37392;50.964;6.952;2022-12-18T15:07:53;52.25;;;21.92;;
51304;SDS011;37392;50.964;6.952;2022-12-18T15:10:31;54.90;;;24.27;;
51304;SDS011;37392;50.964;6.952;2022-12-18T15:20:42;52.85;;;25.48;;
51304;SDS011;37392;50.964;6.952;2022-12-18T15:23:26;50.00;;;21.60;;
51304;SDS011;37392;50.964;6.952;2022-12-18T15:26:16;52.53;;;23.30;;
51304;SDS011;37392;50.964;6.952;2022-12-18T15:31:24;59.17;;;24.40;;
51304;SDS011;37392;50.964;6.952;2022-12-18T15:36:50;54.13;;;23.42;;
51304;SDS011;37392;50.964;6.952;2022-12-18T15:39:16;57.63;;;23.83;;
51304;SDS011;37392;50.964;6.952;2022-12-18T15:41:42;54.80;;;22.42;;
51304;SDS011;37392;50.964;6.952;2022-12-18T15:44:27;54.88;;;24.88;;
51304;SDS011;37392;50.964;6.952;2022-12-18T15:46:53;51.33;;;24.35;;
51304;SDS011;37392;50.964;6.952;2022-12-18T15:49:21;62.33;;;24.73;;
51304;SDS011;37392;50.964;6.952;2022-12-18T15:51:54;56.78;;;22.65;;
51304;SDS011;37392;50.964;6.952;2022-12-18T15:54:23;56.35;;;24.52;;
51304;SDS011;37392;50.964;6.952;2022-12-18T15:57:08;58.33;;;25.83;;
51304;SDS011;37392;50.964;6.952;2022-12-18T15:59:50;64.15;;;26.45;;
51304;SDS011;37392;50.964;6.952;2022-12-18T16:02:26;62.47;;;29.33;;
51304;SDS011;37392;50.964;6.952;2022-12-18T16:04:53;57.75;;;26.98;;
51304;SDS011;37392;50.964;6.952;2022-12-18T16:07:19;53.00;;;24.70;;
51304;SDS011;37392;50.964;6.952;2022-12-18T16:09:45;64.22;;;27.15;;
51304;SDS011;37392;50.964;6.952;2022-12-18T16:12:18;57.13;;;26.55;;
51304;SDS011;37392;50.964;6.952;2022-12-18T16:14:46;56.30;;;25.65;;
51304;SDS011;37392;50.964;6.952;2022-12-18T16:17:12;56.83;;;26.42;;
51304;SDS011;37392;50.964;6.952;2022-12-18T16:19:39;62.88;;;28.13;;
51304;SDS011;37392;50.964;6.952;2022-12-18T16:22:14;57.67;;;24.88;;
51304;SDS011;37392;50.964;6.952;2022-12-18T16:24:45;52.22;;;23.50;;
51304;SDS011;37392;50.964;6.952;2022-12-18T16:27:11;58.95;;;25.02;;
51304;SDS011;37392;50.964;6.952;2022-12-18T16:29:37;59.03;;;26.40;;
51304;SDS011;37392;50.964;6.952;2022-12-18T16:32:02;60.70;;;25.13;;
51304;SDS011;37392;50.964;6.952;2022-12-18T16:34:29;58.67;;;26.33;;
51304;SDS011;37392;50.964;6.952;2022-12-18T16:36:58;56.85;;;26.05;;
51304;SDS011;37392;50.964;6.952;2022-12-18T16:39:26;62.42;;;27.38;;
51304;SDS011;37392;50.964;6.952;2022-12-18T16:41:52;65.50;;;26.05;;
51304;SDS011;37392;50.964;6.952;2022-12-18T16:44:18;63.58;;;25.80;;
51304;SDS011;37392;50.964;6.952;2022-12-18T16:46:44;66.93;;;28.90;;
51304;SDS011;37392;50.964;6.952;2022-12-18T16:49:16;61.75;;;27.70;;
51304;SDS011;37392;50.964;6.952;2022-12-18T16:51:43;63.22;;;25.73;;
51304;SDS011;37392;50.964;6.952;2022-12-18T16:54:11;58.28;;;25.70;;
51304;SDS011;37392;50.964;6.952;2022-12-18T16:56:37;58.25;;;27.63;;
51304;SDS011;37392;50.964;6.952;2022-12-18T16:59:03;65.80;;;26.67;;
51304;SDS011;37392;50.964;6.952;2022-12-18T17:01:29;64.88;;;27.23;;
51304;SDS011;37392;50.964;6.952;2022-12-18T17:03:58;57.20;;;25.80;;
51304;SDS011;37392;50.964;6.952;2022-12-18T17:06:27;66.22;;;27.30;;
51304;SDS011;37392;50.964;6.952;2022-12-18T17:08:55;67.20;;;27.17;;
51304;SDS011;37392;50.964;6.952;2022-12-18T17:11:28;70.47;;;27.55;;
51304;SDS011;37392;50.964;6.952;2022-12-18T17:13:57;52.15;;;25.67;;
51304;SDS011;37392;50.964;6.952;2022-12-18T17:16:23;71.35;;;28.10;;
51304;SDS011;37392;50.964;6.952;2022-12-18T17:18:51;56.15;;;23.85;;
51304;SDS011;37392;50.964;6.952;2022-12-18T17:21:18;65.38;;;29.85;;
51304;SDS011;37392;50.964;6.952;2022-12-18T17:23:43;55.63;;;24.90;;
51304;SDS011;37392;50.964;6.952;2022-12-18T17:26:10;62.70;;;28.40;;
51304;SDS011;37392;50.964;6.952;2022-12-18T17:28:38;63.78;;;27.33;;
51304;SDS011;37392;50.964;6.952;2022-12-18T17:31:09;65.97;;;27.73;;